createdAt,value
2018-12-05T00:01:22.597Z,2.63
2018-12-05T00:03:51.677Z,2.60
2018-12-05T00:06:21.719Z,2.93
2018-12-05T00:08:51.641Z,3.07
2018-12-05T00:11:20.933Z,2.63
2018-12-05T00:13:50.077Z,2.83
2018-12-05T00:16:19.208Z,2.63
2018-12-05T00:18:48.211Z,3.70
2018-12-05T00:21:17.422Z,2.83
2018-12-05T00:23:46.505Z,2.73
2018-12-05T00:26:15.688Z,2.50
2018-12-05T00:28:44.777Z,2.83
2018-12-05T00:31:13.924Z,3.75
2018-12-05T00:33:42.998Z,2.50
2018-12-05T00:36:12.022Z,2.57
2018-12-05T00:38:41.065Z,3.15
2018-12-05T00:41:10.141Z,3.03
2018-12-05T00:43:39.251Z,3.10
2018-12-05T00:46:08.269Z,3.80
2018-12-05T00:48:37.249Z,3.47
2018-12-05T00:51:06.342Z,2.70
2018-12-05T00:53:35.349Z,2.50
2018-12-05T00:56:04.341Z,2.83
2018-12-05T00:58:33.462Z,3.30
2018-12-05T01:01:02.582Z,5.17
2018-12-05T01:03:31.699Z,3.00
2018-12-05T01:06:00.809Z,2.93
2018-12-05T01:08:29.839Z,2.70
2018-12-05T01:10:59.023Z,3.00
2018-12-05T01:13:28.028Z,3.70
2018-12-05T01:15:57.045Z,2.53
2018-12-05T01:18:26.154Z,3.00
2018-12-05T01:20:55.268Z,3.23
2018-12-05T01:23:24.391Z,2.77
2018-12-05T01:25:53.743Z,2.57
2018-12-05T01:28:22.866Z,3.20
2018-12-05T01:30:51.932Z,3.00
2018-12-05T01:33:21.059Z,2.57
2018-12-05T01:35:50.049Z,2.93
2018-12-05T01:38:19.114Z,3.50
2018-12-05T01:40:48.235Z,2.60
2018-12-05T01:43:17.301Z,4.00
2018-12-05T01:45:46.300Z,3.73
2018-12-05T01:48:15.397Z,2.93
2018-12-05T01:50:44.497Z,2.33
2018-12-05T01:53:13.545Z,3.77
2018-12-05T01:55:42.696Z,3.33
2018-12-05T01:58:11.772Z,3.13
2018-12-05T02:00:40.871Z,2.90
2018-12-05T02:03:09.908Z,3.10
2018-12-05T02:05:38.931Z,3.63
2018-12-05T02:08:08.045Z,3.23
2018-12-05T02:10:37.178Z,2.60
2018-12-05T02:13:06.334Z,2.70
2018-12-05T02:15:35.498Z,3.40
2018-12-05T02:18:04.589Z,3.93
2018-12-05T02:20:33.850Z,3.73
2018-12-05T02:23:03.057Z,3.83
2018-12-05T02:25:32.131Z,3.00
2018-12-05T02:28:01.389Z,3.40
2018-12-05T02:30:30.534Z,2.87
2018-12-05T02:32:59.641Z,3.07
2018-12-05T02:35:28.812Z,3.50
2018-12-05T02:37:57.843Z,3.07
2018-12-05T02:40:26.901Z,2.93
2018-12-05T02:42:55.949Z,3.20
2018-12-05T02:45:25.097Z,3.10
2018-12-05T02:47:54.142Z,3.80
2018-12-05T02:50:23.232Z,3.15
2018-12-05T02:52:52.351Z,3.50
2018-12-05T02:55:21.464Z,4.07
2018-12-05T02:57:50.570Z,3.57
2018-12-05T03:00:19.631Z,3.47
2018-12-05T03:02:48.774Z,5.42
2018-12-05T03:05:17.872Z,2.92
2018-12-05T03:07:47.660Z,4.90
2018-12-05T03:10:16.776Z,4.90
2018-12-05T03:12:45.874Z,3.20
2018-12-05T03:15:14.934Z,3.20
2018-12-05T03:17:43.982Z,3.90
2018-12-05T03:20:13.122Z,3.90
2018-12-05T03:22:42.242Z,3.75
2018-12-05T03:25:11.291Z,4.17
2018-12-05T03:27:40.367Z,4.00
2018-12-05T03:30:09.654Z,3.22
2018-12-05T03:32:38.709Z,4.00
2018-12-05T03:35:07.901Z,3.72
2018-12-05T03:37:36.978Z,3.25
2018-12-05T03:40:06.752Z,4.45
2018-12-05T03:42:35.853Z,3.95
2018-12-05T03:45:05.015Z,3.55
2018-12-05T03:47:33.978Z,4.30
2018-12-05T03:50:03.565Z,4.30
2018-12-05T03:52:32.798Z,4.10
2018-12-05T03:55:01.914Z,4.40
2018-12-05T03:57:30.921Z,3.80
2018-12-05T04:00:00.082Z,4.10
2018-12-05T04:02:29.166Z,3.55
2018-12-05T04:04:58.292Z,4.45
2018-12-05T04:07:27.314Z,4.10
2018-12-05T04:09:56.445Z,5.65
2018-12-05T04:12:25.506Z,4.50
2018-12-05T04:14:54.586Z,4.00
2018-12-05T04:17:23.713Z,4.63
2018-12-05T04:19:52.818Z,4.65
2018-12-05T04:22:21.847Z,4.70
2018-12-05T04:24:50.906Z,4.57
2018-12-05T04:27:20.002Z,5.15
2018-12-05T04:29:49.740Z,4.93
2018-12-05T04:32:18.737Z,4.27
2018-12-05T04:34:47.903Z,3.90
2018-12-05T04:37:16.911Z,3.25
2018-12-05T04:39:45.987Z,6.08
2018-12-05T04:42:15.026Z,4.93
2018-12-05T04:44:44.002Z,4.90
2018-12-05T04:47:13.077Z,4.67
2018-12-05T04:49:42.232Z,6.03
2018-12-05T04:52:12.143Z,5.20
2018-12-05T04:54:41.204Z,4.60
2018-12-05T04:57:10.245Z,4.42
2018-12-05T04:59:39.320Z,4.40
2018-12-05T05:02:08.690Z,5.50
2018-12-05T05:04:37.714Z,5.35
2018-12-05T05:07:07.161Z,5.90
2018-12-05T05:09:36.284Z,4.80
2018-12-05T05:12:05.258Z,4.50
2018-12-05T05:14:34.303Z,4.45
2018-12-05T05:17:03.409Z,5.65
2018-12-05T05:19:32.482Z,5.90
2018-12-05T05:22:01.621Z,4.40
2018-12-05T05:24:31.190Z,5.30
2018-12-05T05:27:00.297Z,5.47
2018-12-05T05:29:29.961Z,5.30
2018-12-05T05:31:58.981Z,5.67
2018-12-05T05:34:28.106Z,6.43
2018-12-05T05:36:57.095Z,5.20
2018-12-05T05:39:26.147Z,5.80
2018-12-05T05:41:55.294Z,6.03
2018-12-05T05:44:24.310Z,5.72
2018-12-05T05:47:56.445Z,6.72
2018-12-05T05:50:25.534Z,6.83
2018-12-05T05:52:54.618Z,7.90
2018-12-05T05:55:23.660Z,6.17
2018-12-05T05:57:52.709Z,5.72
2018-12-05T06:00:21.901Z,5.30
2018-12-05T06:02:51.369Z,6.25
2018-12-05T06:05:20.430Z,5.78
2018-12-05T06:07:49.451Z,6.53
2018-12-05T06:10:18.485Z,6.20
2018-12-05T06:12:47.560Z,5.45
2018-12-05T06:15:16.560Z,6.90
2018-12-05T06:17:45.667Z,6.33
2018-12-05T06:20:14.748Z,5.72
2018-12-05T06:22:43.845Z,5.40
2018-12-05T06:25:12.991Z,5.70
2018-12-05T06:27:43.158Z,6.45
2018-12-05T06:30:12.241Z,6.10
2018-12-05T06:32:42.176Z,6.25
2018-12-05T06:35:11.280Z,5.70
2018-12-05T06:37:40.253Z,7.10
2018-12-05T06:40:09.384Z,6.30
2018-12-05T06:42:38.495Z,6.90
2018-12-05T06:45:07.539Z,6.83
2018-12-05T06:47:36.693Z,7.20
2018-12-05T06:50:06.894Z,7.37
2018-12-05T06:52:35.986Z,7.25
2018-12-05T06:55:05.878Z,6.05
2018-12-05T06:57:34.973Z,7.92
2018-12-05T07:00:04.334Z,6.53
2018-12-05T07:02:33.297Z,6.47
2018-12-05T07:05:02.346Z,7.20
2018-12-05T07:07:31.434Z,6.55
2018-12-05T07:10:00.538Z,7.80
2018-12-05T07:12:29.673Z,8.58
2018-12-05T07:14:58.762Z,7.50
2018-12-05T07:17:27.800Z,8.10
2018-12-05T07:19:56.874Z,7.47
2018-12-05T07:22:25.905Z,6.78
2018-12-05T07:24:55.174Z,7.97
2018-12-05T07:27:24.163Z,8.25
2018-12-05T07:29:53.226Z,7.45
2018-12-05T07:32:22.245Z,7.92
2018-12-05T07:34:51.241Z,8.58
2018-12-05T07:37:20.237Z,7.58
2018-12-05T07:39:49.327Z,9.88
2018-12-05T07:42:18.342Z,7.65
2018-12-05T07:44:47.425Z,7.75
2018-12-05T07:47:16.450Z,7.50
2018-12-05T07:49:45.566Z,9.18
2018-12-05T07:52:14.602Z,7.42
2018-12-05T07:54:43.627Z,7.40
2018-12-05T07:57:12.714Z,8.05
2018-12-05T07:59:41.794Z,8.35
2018-12-05T08:02:10.774Z,7.65
2018-12-05T08:04:39.787Z,8.03
2018-12-05T08:07:08.882Z,8.18
2018-12-05T08:09:38.001Z,5.72
2018-12-05T08:12:07.250Z,6.47
2018-12-05T08:14:36.262Z,7.20
2018-12-05T08:17:05.402Z,7.00
2018-12-05T08:19:34.485Z,8.63
2018-12-05T08:22:03.640Z,6.50
2018-12-05T08:24:32.662Z,5.83
2018-12-05T08:27:01.624Z,7.30
2018-12-05T08:29:30.682Z,7.73
2018-12-05T08:31:59.704Z,6.05
2018-12-05T08:34:28.719Z,5.90
2018-12-05T08:36:57.811Z,6.67
2018-12-05T08:39:26.921Z,6.10
2018-12-05T08:41:56.024Z,5.23
2018-12-05T08:44:25.110Z,6.07
2018-12-05T08:46:54.165Z,5.03
2018-12-05T08:49:23.231Z,5.17
2018-12-05T08:51:52.317Z,5.70
2018-12-05T08:54:21.505Z,6.73
2018-12-05T08:56:50.818Z,6.07
2018-12-05T08:59:19.797Z,5.57
2018-12-05T09:01:48.885Z,5.20
2018-12-05T09:04:17.949Z,4.17
2018-12-05T09:06:46.987Z,5.00
2018-12-05T09:09:16.099Z,5.80
2018-12-05T09:11:45.142Z,5.40
2018-12-05T09:14:14.208Z,5.40
2018-12-05T09:16:43.333Z,5.60
2018-12-05T09:19:12.454Z,5.63
2018-12-05T09:21:41.510Z,4.93
2018-12-05T09:24:10.518Z,5.50
2018-12-05T09:26:39.590Z,5.20
2018-12-05T09:29:08.738Z,4.50
2018-12-05T09:31:37.767Z,5.00
2018-12-05T09:34:06.751Z,5.00
2018-12-05T09:36:35.822Z,4.80
2018-12-05T09:39:08.499Z,4.97
2018-12-05T09:41:37.542Z,5.10
2018-12-05T09:44:06.518Z,4.70
2018-12-05T09:46:35.541Z,4.80
2018-12-05T09:49:04.641Z,4.20
2018-12-05T09:51:33.754Z,4.67
2018-12-05T09:54:02.865Z,4.70
2018-12-05T09:56:31.858Z,4.60
2018-12-05T09:59:00.968Z,5.47
2018-12-05T10:01:30.036Z,4.83
2018-12-05T10:03:59.206Z,3.90
2018-12-05T10:06:28.290Z,5.20
2018-12-05T10:08:57.435Z,4.20
2018-12-05T10:11:26.482Z,4.40
2018-12-05T10:13:55.614Z,5.30
2018-12-05T10:16:24.710Z,4.20
2018-12-05T10:18:53.775Z,4.90
2018-12-05T10:21:22.854Z,5.27
2018-12-05T10:23:51.950Z,5.53
2018-12-05T10:26:21.055Z,5.90
2018-12-05T10:28:50.145Z,4.67
2018-12-05T10:31:19.244Z,4.00
2018-12-05T10:33:48.825Z,4.63
2018-12-05T10:36:17.841Z,4.87
2018-12-05T10:38:46.819Z,5.37
2018-12-05T10:41:16.079Z,3.90
2018-12-05T10:43:45.137Z,4.80
2018-12-05T10:46:14.235Z,4.10
2018-12-05T10:48:43.347Z,4.23
2018-12-05T10:51:12.652Z,4.00
2018-12-05T10:53:41.690Z,3.93
2018-12-05T10:56:10.806Z,4.20
2018-12-05T10:58:39.864Z,4.40
2018-12-05T11:01:14.302Z,4.33
2018-12-05T11:03:43.397Z,4.10
2018-12-05T11:07:16.660Z,5.37
2018-12-05T11:09:50.998Z,3.87
2018-12-05T11:12:25.445Z,3.70
2018-12-05T11:14:59.817Z,4.30
2018-12-05T11:17:34.233Z,3.80
2018-12-05T11:20:08.991Z,3.50
2018-12-05T11:22:43.591Z,4.20
2018-12-05T11:25:16.731Z,3.33
2018-12-05T11:27:45.829Z,3.43
2018-12-05T11:30:14.869Z,4.17
2018-12-05T11:32:43.902Z,3.97
2018-12-05T11:35:13.026Z,2.87
2018-12-05T11:37:42.093Z,3.50
2018-12-05T11:40:11.279Z,3.10
2018-12-05T11:42:40.226Z,2.97
2018-12-05T11:45:09.361Z,3.57
2018-12-05T11:47:38.425Z,3.80
2018-12-05T11:50:07.973Z,3.70
2018-12-05T11:52:37.069Z,3.30
2018-12-05T11:55:06.689Z,3.40
2018-12-05T11:57:35.754Z,3.47
2018-12-05T12:00:05.977Z,2.60
2018-12-05T12:02:35.028Z,3.70
2018-12-05T12:05:04.690Z,3.93
2018-12-05T12:07:33.783Z,3.73
2018-12-05T12:10:02.908Z,3.70
2018-12-05T12:12:37.354Z,2.90
2018-12-05T12:15:07.590Z,4.17
2018-12-05T12:17:36.722Z,3.57
2018-12-05T12:20:06.154Z,3.40
2018-12-05T12:22:35.217Z,4.07
2018-12-05T12:25:04.579Z,4.43
2018-12-05T12:27:33.652Z,4.13
2018-12-05T12:30:02.670Z,5.53
2018-12-05T12:32:31.660Z,5.57
2018-12-05T12:35:00.702Z,3.67
2018-12-05T12:37:29.791Z,3.37
2018-12-05T12:39:58.790Z,3.57
2018-12-05T12:42:27.933Z,3.77
2018-12-05T12:44:56.994Z,3.67
2018-12-05T12:47:26.030Z,4.50
2018-12-05T12:49:55.042Z,4.00
2018-12-05T12:52:24.110Z,4.23
2018-12-05T12:54:53.278Z,8.43
2018-12-05T12:57:22.319Z,4.47
2018-12-05T12:59:51.358Z,5.80
2018-12-05T13:02:20.414Z,4.50
2018-12-05T13:04:49.606Z,3.00
2018-12-05T13:07:18.730Z,4.37
2018-12-05T13:09:47.781Z,4.50
2018-12-05T13:12:22.170Z,4.83
2018-12-05T13:14:51.325Z,4.73
2018-12-05T13:17:20.415Z,4.13
2018-12-05T13:19:49.477Z,4.47
2018-12-05T13:22:18.777Z,4.13
2018-12-05T13:24:47.941Z,4.63
2018-12-05T13:27:17.083Z,3.77
2018-12-05T13:29:45.989Z,4.03
2018-12-05T13:32:14.953Z,3.93
2018-12-05T13:34:43.979Z,4.03
2018-12-05T13:37:12.962Z,4.43
2018-12-05T13:39:41.938Z,4.40
2018-12-05T13:42:11.000Z,4.37
2018-12-05T13:44:40.015Z,4.43
2018-12-05T13:47:09.272Z,4.13
2018-12-05T13:49:38.387Z,4.57
2018-12-05T13:52:07.546Z,3.23
2018-12-05T13:54:36.743Z,3.50
2018-12-05T13:57:05.985Z,3.17
2018-12-05T13:59:34.985Z,3.50
2018-12-05T14:02:04.025Z,3.33
2018-12-05T14:04:33.067Z,3.60
2018-12-05T14:07:02.005Z,3.23
2018-12-05T14:09:30.997Z,4.17
2018-12-05T14:11:59.989Z,3.33
2018-12-05T14:14:29.010Z,2.87
2018-12-05T14:16:59.003Z,3.47
2018-12-05T14:19:28.070Z,3.63
2018-12-05T14:21:57.043Z,2.70
2018-12-05T14:24:26.068Z,4.50
2018-12-05T14:26:55.146Z,3.37
2018-12-05T14:29:24.130Z,5.20
2018-12-05T14:31:53.144Z,3.00
2018-12-05T14:34:22.161Z,3.47
2018-12-05T14:36:51.241Z,4.60
2018-12-05T14:39:20.325Z,3.10
2018-12-05T14:41:49.348Z,5.17
2018-12-05T14:44:18.414Z,5.40
2018-12-05T14:46:47.417Z,4.40
2018-12-05T14:49:16.514Z,3.80
2018-12-05T14:51:45.572Z,4.77
2018-12-05T14:54:14.519Z,4.90
2018-12-05T14:56:43.583Z,4.10
2018-12-05T14:59:12.783Z,4.60
2018-12-05T15:01:41.837Z,4.87
2018-12-05T15:04:10.831Z,4.50
2018-12-05T15:06:39.839Z,3.60
2018-12-05T15:09:09.068Z,3.53
2018-12-05T15:11:38.129Z,3.57
2018-12-05T15:14:07.102Z,5.10
2018-12-05T15:16:36.147Z,4.63
2018-12-05T15:19:05.132Z,4.47
2018-12-05T15:21:34.173Z,4.43
2018-12-05T15:24:03.154Z,3.43
2018-12-05T15:26:32.252Z,4.10
2018-12-05T15:29:01.247Z,4.30
2018-12-05T15:31:30.337Z,4.80
2018-12-05T15:33:59.385Z,4.70
2018-12-05T15:36:28.499Z,4.13
2018-12-05T15:38:57.608Z,5.57
2018-12-05T15:41:26.578Z,5.30
2018-12-05T15:43:55.624Z,5.03
2018-12-05T15:46:24.693Z,5.40
2018-12-05T15:48:53.725Z,67.27
2018-12-05T15:51:22.726Z,22.37
2018-12-05T15:53:51.888Z,43.17
2018-12-05T15:56:20.963Z,33.00
2018-12-05T15:58:49.995Z,23.67
2018-12-05T16:01:18.968Z,24.80
2018-12-05T16:03:48.849Z,9.13
2018-12-05T16:06:17.862Z,5.07
2018-12-05T16:08:46.851Z,7.30
2018-12-05T16:11:15.904Z,7.70
2018-12-05T16:13:45.285Z,7.50
2018-12-05T16:16:14.294Z,6.10
2018-12-05T16:18:44.351Z,6.03
2018-12-05T16:21:13.340Z,5.50
2018-12-05T16:23:42.449Z,5.27
2018-12-05T16:26:11.522Z,6.13
2018-12-05T16:28:40.598Z,4.77
2018-12-05T16:31:09.670Z,5.80
2018-12-05T16:33:38.669Z,5.57
2018-12-05T16:36:11.334Z,5.27
2018-12-05T16:38:38.887Z,5.77
2018-12-05T16:41:07.878Z,5.00
2018-12-05T16:43:36.909Z,7.20
2018-12-05T16:46:05.974Z,5.57
2018-12-05T16:48:34.951Z,5.33
2018-12-05T16:51:03.999Z,5.57
2018-12-05T16:53:33.059Z,6.57
2018-12-05T16:56:02.153Z,5.70
2018-12-05T16:58:31.209Z,5.87
2018-12-05T17:01:00.265Z,5.30
2018-12-05T17:03:29.440Z,8.83
2018-12-05T17:05:58.545Z,10.33
2018-12-05T17:08:27.596Z,9.60
2018-12-05T17:10:57.374Z,9.03
2018-12-05T17:13:26.456Z,9.30
2018-12-05T17:15:55.514Z,8.60
2018-12-05T17:18:24.595Z,9.20
2018-12-05T17:20:53.638Z,10.67
2018-12-05T17:23:22.734Z,10.87
2018-12-05T17:25:51.815Z,8.63
2018-12-05T17:28:20.941Z,13.77
2018-12-05T17:30:49.925Z,16.43
2018-12-05T17:33:18.985Z,23.05
2018-12-05T17:35:48.049Z,16.10
2018-12-05T17:38:16.989Z,22.20
2018-12-05T17:40:46.083Z,18.53
2018-12-05T17:43:15.105Z,14.47
2018-12-05T17:45:44.193Z,14.70
2018-12-05T17:48:13.385Z,11.88
2018-12-05T17:50:42.445Z,11.83
2018-12-05T17:53:11.498Z,11.75
2018-12-05T17:55:40.591Z,10.70
2018-12-05T17:58:09.745Z,10.75
2018-12-05T18:00:38.833Z,14.27
2018-12-05T18:03:07.944Z,15.07
2018-12-05T18:05:36.977Z,12.90
2018-12-05T18:08:06.030Z,12.80
2018-12-05T18:10:35.109Z,10.03
2018-12-05T18:13:04.342Z,11.45
2018-12-05T18:15:33.384Z,12.68
2018-12-05T18:18:02.527Z,11.77
2018-12-05T18:20:31.617Z,11.80
2018-12-05T18:23:00.641Z,9.90
2018-12-05T18:25:29.683Z,11.33
2018-12-05T18:27:58.802Z,9.90
2018-12-05T18:30:27.845Z,8.75
2018-12-05T18:32:57.005Z,9.75
2018-12-05T18:35:26.165Z,8.75
2018-12-05T18:37:55.210Z,9.30
2018-12-05T18:40:24.214Z,8.25
2018-12-05T18:42:53.189Z,9.93
2018-12-05T18:45:22.229Z,9.80
2018-12-05T18:47:51.307Z,8.40
2018-12-05T18:50:20.399Z,9.40
2018-12-05T18:52:49.506Z,10.40
2018-12-05T18:55:18.516Z,9.38
2018-12-05T18:58:50.538Z,9.10
2018-12-05T19:01:19.568Z,9.40
2018-12-05T19:03:48.655Z,9.88
2018-12-05T19:06:17.653Z,10.03
2018-12-05T19:08:46.648Z,9.07
2018-12-05T19:11:15.843Z,8.33
2018-12-05T19:13:50.233Z,8.50
2018-12-05T19:16:19.240Z,8.35
2018-12-05T19:18:48.329Z,8.53
2018-12-05T19:21:17.462Z,5.85
2018-12-05T19:23:47.261Z,7.37
2018-12-05T19:26:16.578Z,7.12
2018-12-05T19:28:45.773Z,5.25
2018-12-05T19:31:19.402Z,6.45
2018-12-05T19:33:45.853Z,6.28
2018-12-05T19:36:14.825Z,7.62
2018-12-05T19:38:43.879Z,7.63
2018-12-05T19:41:12.993Z,7.33
2018-12-05T19:43:42.027Z,6.33
2018-12-05T19:46:11.098Z,8.63
2018-12-05T19:48:40.970Z,7.58
2018-12-05T19:51:10.969Z,7.30
2018-12-05T19:53:40.202Z,7.23
2018-12-05T19:56:09.412Z,6.20
2018-12-05T19:58:38.462Z,6.67
2018-12-05T20:01:07.434Z,7.60
2018-12-05T20:03:36.498Z,5.60
2018-12-05T20:06:05.506Z,6.30
2018-12-05T20:08:34.618Z,5.12
2018-12-05T20:11:03.745Z,5.28
2018-12-05T20:13:34.625Z,5.97
2018-12-05T20:16:03.675Z,5.70
2018-12-05T20:25:28.136Z,6.20
2018-12-05T20:27:57.140Z,5.30
2018-12-05T20:30:26.181Z,5.67
2018-12-05T20:32:56.018Z,6.17
2018-12-05T20:35:25.092Z,7.53
2018-12-05T20:37:54.225Z,8.00
2018-12-05T20:40:23.342Z,7.12
2018-12-05T20:42:52.437Z,7.12
2018-12-05T20:45:21.469Z,6.87
2018-12-05T20:47:50.595Z,7.47
2018-12-05T20:50:19.924Z,5.90
2018-12-05T20:52:49.391Z,6.15
2018-12-05T20:55:18.346Z,6.05
2018-12-05T20:57:47.458Z,6.83
2018-12-05T21:00:16.568Z,6.58
2018-12-05T21:02:45.613Z,6.65
2018-12-05T21:05:14.642Z,7.05
2018-12-05T21:07:43.778Z,6.90
2018-12-05T21:10:12.884Z,6.40
2018-12-05T21:12:41.881Z,9.23
2018-12-05T21:15:11.039Z,8.23
2018-12-05T21:17:40.102Z,7.03
2018-12-05T21:20:09.238Z,9.60
2018-12-05T21:22:38.365Z,7.67
2018-12-05T21:25:07.446Z,7.25
2018-12-05T21:27:36.447Z,7.97
2018-12-05T21:30:06.898Z,7.30
2018-12-05T21:32:36.103Z,6.42
2018-12-05T21:35:05.266Z,6.63
2018-12-05T21:37:34.307Z,7.58
2018-12-05T21:40:03.726Z,8.30
2018-12-05T21:42:32.837Z,7.83
2018-12-05T21:45:02.085Z,6.80
2018-12-05T21:47:31.305Z,7.37
2018-12-05T21:50:00.374Z,7.00
2018-12-05T21:52:30.889Z,7.33
2018-12-05T21:54:59.985Z,6.73
2018-12-05T21:57:29.135Z,6.93
2018-12-05T21:59:58.113Z,11.40
2018-12-05T22:02:27.201Z,8.03
2018-12-05T22:04:56.297Z,7.70
2018-12-05T22:07:25.714Z,8.68
2018-12-05T22:09:54.761Z,8.78
2018-12-05T22:12:23.904Z,6.00
2018-12-05T22:14:52.967Z,6.10
2018-12-05T22:17:21.973Z,6.85
2018-12-05T22:19:51.171Z,10.78
2018-12-05T22:22:21.354Z,7.10
2018-12-05T22:24:50.643Z,8.05
2018-12-05T22:27:19.669Z,8.13
2018-12-05T22:29:48.690Z,12.50
2018-12-05T22:32:17.721Z,8.35
2018-12-05T22:34:46.727Z,11.20
2018-12-05T22:37:15.866Z,12.55
2018-12-05T22:39:45.063Z,6.35
2018-12-05T22:42:14.172Z,16.15
2018-12-05T22:44:43.173Z,16.03
2018-12-05T22:47:12.192Z,8.13
2018-12-05T22:49:41.160Z,9.75
2018-12-05T22:52:10.187Z,10.33
2018-12-05T22:54:39.235Z,16.60
2018-12-05T22:57:14.188Z,11.70
2018-12-05T22:59:43.262Z,16.17
2018-12-05T23:02:12.341Z,7.30
2018-12-05T23:04:41.366Z,7.50
2018-12-05T23:07:10.387Z,6.65
2018-12-05T23:09:40.317Z,9.80
2018-12-05T23:12:09.390Z,7.40
2018-12-05T23:14:38.494Z,8.90
2018-12-05T23:17:07.589Z,7.43
2018-12-05T23:19:36.657Z,13.27
2018-12-05T23:22:05.650Z,8.53
2018-12-05T23:24:34.777Z,8.30
2018-12-05T23:27:03.834Z,6.87
2018-12-05T23:29:32.989Z,6.60
2018-12-05T23:32:02.027Z,7.60
2018-12-05T23:34:31.020Z,5.37
2018-12-05T23:37:00.009Z,6.10
2018-12-05T23:39:29.024Z,7.40
2018-12-05T23:41:58.085Z,6.60
2018-12-05T23:44:27.138Z,6.97
2018-12-05T23:46:56.182Z,6.60
2018-12-05T23:56:54.833Z,6.10
2018-12-05T23:59:23.830Z,6.37
